XAJNT MMAA-MMTO
Flight info
| Callsign | XAJNT |
|---|---|
| Flight time | 0h 36m |
| Altitude | 34000 |
| Route | ALNUS UT120 ELILA ELILA2A |
| Aircraft | C750/M-SBDE3FGHRWXY/S |
Departure
| Time | 2026-04-20 23:34 |
|---|---|
| Airport | General Juan N. Álvarez International Airport (MMAA) |
Arrival
| Time | 2026-04-21 00:10 |
|---|---|
| Airport | Adolfo López Mateos International Airport (MMTO) |
| Time | Latitude | Longitude | Altitude | Speed | Heading |
|---|---|---|---|---|---|
| 2026-04-20 23:21 | 16.76150 | -99.74957 | 13 ft | 0 kts | 248° |
| 2026-04-20 23:30 | 16.76147 | -99.74965 | 13 ft | 5 kts | 248° |
| 2026-04-20 23:30 | 16.76104 | -99.74982 | 13 ft | 8 kts | 158° |
| 2026-04-20 23:31 | 16.76073 | -99.75013 | 13 ft | 10 kts | 249° |
| 2026-04-20 23:31 | 16.76040 | -99.75006 | 13 ft | 7 kts | 88° |
| 2026-04-20 23:31 | 16.76031 | -99.74914 | 13 ft | 18 kts | 97° |
| 2026-04-20 23:31 | 16.76027 | -99.74883 | 13 ft | 0 kts | 97° |
| 2026-04-20 23:32 | 16.76026 | -99.74871 | 13 ft | 5 kts | 97° |
| 2026-04-20 23:32 | 16.76011 | -99.74833 | 13 ft | 8 kts | 134° |
| 2026-04-20 23:32 | 16.75945 | -99.74818 | 12 ft | 9 kts | 209° |
| 2026-04-20 23:33 | 16.75934 | -99.74834 | 12 ft | 1 kts | 247° |
| 2026-04-20 23:33 | 16.75860 | -99.75004 | 14 ft | 75 kts | 244° |
| 2026-04-20 23:33 | 16.75536 | -99.75804 | 153 ft | 141 kts | 245° |
| 2026-04-20 23:33 | 16.75067 | -99.76809 | 550 ft | 166 kts | 245° |
| 2026-04-20 23:34 | 16.74585 | -99.78007 | 948 ft | 192 kts | 249° |
| 2026-04-20 23:34 | 16.74051 | -99.79374 | 1391 ft | 221 kts | 248° |
| 2026-04-20 23:34 | 16.73411 | -99.80931 | 2001 ft | 246 kts | 247° |
| 2026-04-20 23:34 | 16.72722 | -99.82586 | 2998 ft | 249 kts | 248° |
| 2026-04-20 23:35 | 16.72025 | -99.84274 | 3959 ft | 259 kts | 248° |
| 2026-04-20 23:35 | 16.70377 | -99.87734 | 5639 ft | 278 kts | 229° |
| 2026-04-20 23:35 | 16.68756 | -99.88821 | 6556 ft | 280 kts | 200° |
| 2026-04-20 23:36 | 16.66820 | -99.89028 | 7448 ft | 284 kts | 171° |
| 2026-04-20 23:36 | 16.65006 | -99.88255 | 8461 ft | 284 kts | 143° |
| 2026-04-20 23:36 | 16.63752 | -99.86699 | 9513 ft | 282 kts | 115° |
| 2026-04-20 23:36 | 16.63328 | -99.84713 | 10378 ft | 286 kts | 90° |
| 2026-04-20 23:37 | 16.63862 | -99.82638 | 10594 ft | 314 kts | 62° |
| 2026-04-20 23:37 | 16.65413 | -99.80939 | 10672 ft | 345 kts | 37° |
| 2026-04-20 23:37 | 16.67547 | -99.79742 | 11404 ft | 349 kts | 26° |
| 2026-04-20 23:37 | 16.69772 | -99.78719 | 12204 ft | 352 kts | 25° |
| 2026-04-20 23:38 | 16.72005 | -99.77603 | 12912 ft | 357 kts | 29° |
| 2026-04-20 23:38 | 16.74187 | -99.76344 | 13656 ft | 361 kts | 30° |
| 2026-04-20 23:38 | 16.76603 | -99.75546 | 14172 ft | 371 kts | 11° |
| 2026-04-20 23:38 | 16.79192 | -99.75447 | 14875 ft | 374 kts | 1° |
| 2026-04-20 23:39 | 16.81817 | -99.75507 | 15503 ft | 379 kts | 0° |
| 2026-04-20 23:39 | 16.84472 | -99.75587 | 16163 ft | 384 kts | 0° |
| 2026-04-20 23:39 | 16.87157 | -99.75645 | 16820 ft | 389 kts | 1° |
| 2026-04-20 23:39 | 16.89881 | -99.75690 | 17486 ft | 394 kts | 0° |
| 2026-04-20 23:40 | 16.92642 | -99.75747 | 18172 ft | 400 kts | 0° |
| 2026-04-20 23:40 | 16.95447 | -99.75813 | 18814 ft | 404 kts | 360° |
| 2026-04-20 23:40 | 16.98259 | -99.75875 | 19556 ft | 406 kts | 359° |
| 2026-04-20 23:40 | 17.01093 | -99.75932 | 20289 ft | 409 kts | 359° |
| 2026-04-20 23:41 | 17.03943 | -99.75991 | 21040 ft | 411 kts | 359° |
| 2026-04-20 23:41 | 17.06816 | -99.76054 | 21791 ft | 414 kts | 359° |
| 2026-04-20 23:41 | 17.09705 | -99.76117 | 22515 ft | 417 kts | 358° |
| 2026-04-20 23:41 | 17.12625 | -99.76178 | 23255 ft | 420 kts | 358° |
| 2026-04-20 23:42 | 17.15561 | -99.76240 | 23892 ft | 424 kts | 358° |
| 2026-04-20 23:42 | 17.18530 | -99.76303 | 24447 ft | 429 kts | 357° |
| 2026-04-20 23:42 | 17.21486 | -99.76367 | 24975 ft | 434 kts | 357° |
| 2026-04-20 23:42 | 17.24521 | -99.76431 | 25517 ft | 439 kts | 357° |
| 2026-04-20 23:43 | 17.27591 | -99.76497 | 26060 ft | 444 kts | 357° |
| 2026-04-20 23:43 | 17.30699 | -99.76563 | 26625 ft | 448 kts | 357° |
| 2026-04-20 23:43 | 17.33838 | -99.76630 | 27165 ft | 453 kts | 357° |
| 2026-04-20 23:43 | 17.37009 | -99.76698 | 27713 ft | 458 kts | 357° |
| 2026-04-20 23:44 | 17.40222 | -99.76766 | 28265 ft | 462 kts | 357° |
| 2026-04-20 23:44 | 17.43460 | -99.76835 | 28805 ft | 467 kts | 357° |
| 2026-04-20 23:44 | 17.46684 | -99.76903 | 29333 ft | 472 kts | 357° |
| 2026-04-20 23:44 | 17.49979 | -99.76974 | 29849 ft | 475 kts | 356° |
| 2026-04-20 23:45 | 17.53302 | -99.77046 | 30289 ft | 480 kts | 356° |
| 2026-04-20 23:45 | 17.56657 | -99.77119 | 30707 ft | 484 kts | 356° |
| 2026-04-20 23:45 | 17.60007 | -99.77466 | 31120 ft | 484 kts | 348° |
| 2026-04-20 23:45 | 17.63261 | -99.78314 | 31772 ft | 479 kts | 341° |
| 2026-04-20 23:46 | 17.66458 | -99.79293 | 32372 ft | 479 kts | 341° |
| 2026-04-20 23:46 | 17.69656 | -99.80261 | 32940 ft | 479 kts | 341° |
| 2026-04-20 23:46 | 17.72859 | -99.81226 | 33497 ft | 479 kts | 341° |
| 2026-04-20 23:46 | 17.76051 | -99.82196 | 34096 ft | 478 kts | 341° |
| 2026-04-20 23:47 | 17.79245 | -99.83172 | 34652 ft | 477 kts | 340° |
| 2026-04-20 23:47 | 17.82399 | -99.84130 | 35241 ft | 475 kts | 341° |
| 2026-04-20 23:47 | 17.85555 | -99.85086 | 35812 ft | 470 kts | 341° |
| 2026-04-20 23:47 | 17.88730 | -99.86052 | 35912 ft | 481 kts | 340° |
| 2026-04-20 23:48 | 17.91984 | -99.87049 | 35914 ft | 493 kts | 341° |
| 2026-04-20 23:48 | 17.95322 | -99.88065 | 35918 ft | 505 kts | 341° |
| 2026-04-20 23:48 | 17.98720 | -99.89095 | 35919 ft | 514 kts | 341° |
| 2026-04-20 23:49 | 18.05692 | -99.91220 | 35917 ft | 527 kts | 341° |
| 2026-04-20 23:49 | 18.12783 | -99.93382 | 35919 ft | 533 kts | 341° |
| 2026-04-20 23:50 | 18.19917 | -99.95557 | 35923 ft | 534 kts | 341° |
| 2026-04-20 23:50 | 18.27040 | -99.97735 | 35931 ft | 533 kts | 341° |
| 2026-04-20 23:50 | 18.30576 | -99.98693 | 35903 ft | 499 kts | 346° |
| 2026-04-20 23:51 | 18.33873 | -99.99087 | 35738 ft | 458 kts | 354° |
| 2026-04-20 23:51 | 18.36921 | -99.99037 | 35488 ft | 431 kts | 0° |
| 2026-04-20 23:51 | 18.39836 | -99.98794 | 35215 ft | 417 kts | 0° |
| 2026-04-20 23:51 | 18.42817 | -99.98581 | 34973 ft | 440 kts | 0° |
| 2026-04-20 23:52 | 18.45943 | -99.98374 | 34834 ft | 460 kts | 0° |
| 2026-04-20 23:52 | 18.49181 | -99.98133 | 34768 ft | 473 kts | 1° |
| 2026-04-20 23:52 | 18.52443 | -99.97871 | 34737 ft | 455 kts | 1° |
| 2026-04-20 23:52 | 18.55478 | -99.97633 | 34544 ft | 424 kts | 0° |
| 2026-04-20 23:53 | 18.58359 | -99.97432 | 34110 ft | 406 kts | 360° |
| 2026-04-20 23:53 | 18.61145 | -99.97238 | 33569 ft | 396 kts | 360° |
| 2026-04-20 23:53 | 18.63861 | -99.97035 | 33001 ft | 387 kts | 0° |
| 2026-04-20 23:53 | 18.66521 | -99.96831 | 32455 ft | 380 kts | 360° |
| 2026-04-20 23:54 | 18.69158 | -99.96636 | 31578 ft | 382 kts | 360° |
| 2026-04-20 23:54 | 18.71846 | -99.96445 | 30431 ft | 391 kts | 360° |
| 2026-04-20 23:54 | 18.74574 | -99.96244 | 29203 ft | 395 kts | 0° |
| 2026-04-20 23:54 | 18.77315 | -99.96036 | 27983 ft | 396 kts | 0° |
| 2026-04-20 23:55 | 18.80058 | -99.95830 | 26809 ft | 395 kts | 1° |
| 2026-04-20 23:55 | 18.82787 | -99.95629 | 25674 ft | 391 kts | 1° |
| 2026-04-20 23:55 | 18.85469 | -99.95629 | 24508 ft | 382 kts | 351° |
| 2026-04-20 23:55 | 18.88084 | -99.96071 | 23418 ft | 379 kts | 349° |
| 2026-04-20 23:56 | 18.90640 | -99.96528 | 22191 ft | 376 kts | 349° |
| 2026-04-20 23:56 | 18.93214 | -99.96948 | 21002 ft | 373 kts | 350° |
| 2026-04-20 23:56 | 18.95778 | -99.97352 | 19848 ft | 371 kts | 350° |
| 2026-04-20 23:56 | 18.98317 | -99.97770 | 18740 ft | 369 kts | 350° |
| 2026-04-20 23:57 | 19.00841 | -99.98198 | 17539 ft | 367 kts | 351° |
| 2026-04-20 23:57 | 19.03356 | -99.98613 | 16354 ft | 363 kts | 352° |
| 2026-04-20 23:57 | 19.05791 | -99.99010 | 16189 ft | 355 kts | 352° |
| 2026-04-20 23:57 | 19.08323 | -99.99427 | 16315 ft | 380 kts | 352° |
| 2026-04-20 23:58 | 19.10999 | -99.99872 | 16472 ft | 393 kts | 352° |
| 2026-04-20 23:58 | 19.13725 | -100.00326 | 16630 ft | 398 kts | 352° |
| 2026-04-20 23:58 | 19.16423 | -100.00772 | 16626 ft | 394 kts | 352° |
| 2026-04-20 23:58 | 19.19115 | -100.01217 | 16328 ft | 391 kts | 352° |
| 2026-04-20 23:59 | 19.21796 | -100.01487 | 15934 ft | 383 kts | 3° |
| 2026-04-20 23:59 | 19.24295 | -100.00906 | 15612 ft | 354 kts | 21° |
| 2026-04-20 23:59 | 19.26425 | -99.99813 | 15359 ft | 328 kts | 29° |
| 2026-04-20 23:59 | 19.28391 | -99.98725 | 15096 ft | 310 kts | 29° |
| 2026-04-21 00:00 | 19.30260 | -99.97705 | 14831 ft | 295 kts | 28° |
| 2026-04-21 00:00 | 19.32043 | -99.96736 | 14584 ft | 281 kts | 28° |
| 2026-04-21 00:00 | 19.33747 | -99.95805 | 14340 ft | 270 kts | 29° |
| 2026-04-21 00:00 | 19.35382 | -99.94910 | 14110 ft | 259 kts | 29° |
| 2026-04-21 00:01 | 19.36968 | -99.94042 | 13879 ft | 254 kts | 29° |
| 2026-04-21 00:01 | 19.38523 | -99.93192 | 13742 ft | 247 kts | 29° |
| 2026-04-21 00:01 | 19.40017 | -99.92374 | 13746 ft | 245 kts | 29° |
| 2026-04-21 00:01 | 19.41463 | -99.91294 | 13736 ft | 271 kts | 46° |
| 2026-04-21 00:02 | 19.42761 | -99.89671 | 13815 ft | 305 kts | 52° |
| 2026-04-21 00:02 | 19.44145 | -99.87804 | 13822 ft | 338 kts | 52° |
| 2026-04-21 00:02 | 19.45763 | -99.85845 | 13825 ft | 357 kts | 48° |
| 2026-04-21 00:02 | 19.47405 | -99.84024 | 13815 ft | 325 kts | 47° |
| 2026-04-21 00:03 | 19.48869 | -99.82341 | 13799 ft | 297 kts | 49° |
| 2026-04-21 00:03 | 19.50170 | -99.80771 | 13794 ft | 272 kts | 50° |
| 2026-04-21 00:03 | 19.51366 | -99.79344 | 13697 ft | 254 kts | 49° |
| 2026-04-21 00:03 | 19.52535 | -99.77975 | 13404 ft | 247 kts | 49° |
| 2026-04-21 00:04 | 19.53672 | -99.76638 | 13103 ft | 241 kts | 50° |
| 2026-04-21 00:04 | 19.54503 | -99.75127 | 12707 ft | 238 kts | 73° |
| 2026-04-21 00:04 | 19.54606 | -99.73408 | 12502 ft | 232 kts | 96° |
| 2026-04-21 00:04 | 19.54309 | -99.71743 | 12360 ft | 229 kts | 100° |
| 2026-04-21 00:05 | 19.54005 | -99.70074 | 12183 ft | 232 kts | 100° |
| 2026-04-21 00:05 | 19.53705 | -99.68370 | 11985 ft | 237 kts | 99° |
| 2026-04-21 00:05 | 19.53357 | -99.66655 | 11741 ft | 239 kts | 106° |
| 2026-04-21 00:05 | 19.52394 | -99.65218 | 11444 ft | 244 kts | 140° |
| 2026-04-21 00:06 | 19.50943 | -99.64423 | 11518 ft | 224 kts | 155° |
| 2026-04-21 00:06 | 19.49545 | -99.63820 | 11384 ft | 214 kts | 155° |
| 2026-04-21 00:06 | 19.48174 | -99.63188 | 11131 ft | 217 kts | 155° |
| 2026-04-21 00:06 | 19.46793 | -99.62552 | 10868 ft | 213 kts | 155° |
| 2026-04-21 00:07 | 19.45463 | -99.61947 | 10631 ft | 203 kts | 155° |
| 2026-04-21 00:07 | 19.44190 | -99.61369 | 10396 ft | 194 kts | 154° |
| 2026-04-21 00:07 | 19.43025 | -99.60841 | 10155 ft | 170 kts | 155° |
| 2026-04-21 00:07 | 19.42330 | -99.60527 | 10028 ft | 159 kts | 155° |
| 2026-04-21 00:08 | 19.41033 | -99.59933 | 9772 ft | 149 kts | 155° |
| 2026-04-21 00:08 | 19.40074 | -99.59496 | 9608 ft | 152 kts | 156° |
| 2026-04-21 00:08 | 19.39413 | -99.59187 | 9491 ft | 154 kts | 156° |
| 2026-04-21 00:08 | 19.38440 | -99.58691 | 9247 ft | 155 kts | 155° |
| 2026-04-21 00:09 | 19.37469 | -99.58252 | 9067 ft | 148 kts | 160° |
| 2026-04-21 00:09 | 19.36525 | -99.57855 | 8796 ft | 147 kts | 159° |
| 2026-04-21 00:09 | 19.35309 | -99.57316 | 8503 ft | 137 kts | 160° |
| 2026-04-21 00:09 | 19.34746 | -99.57073 | 8466 ft | 125 kts | 157° |
| 2026-04-21 00:10 | 19.34043 | -99.56752 | 8463 ft | 95 kts | 157° |
| 2026-04-21 00:10 | 19.33502 | -99.56506 | 8469 ft | 63 kts | 158° |
| 2026-04-21 00:10 | 19.33185 | -99.56368 | 8466 ft | 38 kts | 156° |
| 2026-04-21 00:10 | 19.33014 | -99.56307 | 8466 ft | 19 kts | 191° |
| 2026-04-21 00:11 | 19.32984 | -99.56352 | 8464 ft | 6 kts | 250° |
| 2026-04-21 00:11 | 19.32971 | -99.56387 | 8471 ft | 5 kts | 249° |
| 2026-04-21 00:11 | 19.32956 | -99.56417 | 8469 ft | 4 kts | 232° |
| 2026-04-21 00:11 | 19.32932 | -99.56438 | 8467 ft | 6 kts | 206° |
| 2026-04-21 00:12 | 19.32889 | -99.56439 | 8469 ft | 6 kts | 202° |
| 2026-04-21 00:12 | 19.32870 | -99.56468 | 8469 ft | 6 kts | 246° |
| 2026-04-21 00:12 | 19.32849 | -99.56519 | 8468 ft | 9 kts | 246° |
| 2026-04-21 00:12 | 19.32819 | -99.56591 | 8466 ft | 12 kts | 246° |
| 2026-04-21 00:13 | 19.32785 | -99.56643 | 8468 ft | 1 kts | 195° |
| 2026-04-21 00:13 | 19.32783 | -99.56641 | 8469 ft | 1 kts | 163° |
| 2026-04-21 00:13 | 19.32780 | -99.56633 | 8470 ft | 0 kts | 93° |
| 2026-04-21 00:13 | 19.32781 | -99.56631 | 8470 ft | 1 kts | 69° |
| 2026-04-21 00:14 | 19.32782 | -99.56631 | 8470 ft | 0 kts | 57° |